Overview Statistics Trail Chart Weather Telemetry Raw packets
 

This is the latest recevied weather packets stored in our database for station/object KW4UJ. If no packets are shown the sender has not sent any weather packets the latest 10 day(s).

<< 37 38 39 40 41 42 43 >>
Time Temp. Humidity Pressure Rain* Wind** Luminosity Snow
1788379014 23.33° C 96% 1018.7 hPa 0 mm - 13 W/m² -
1788378714 23.33° C 95% 1018.5 hPa 0 mm - 14 W/m² -
1788378413 23.33° C 95% 1018.4 hPa 0 mm - 14 W/m² -
1788378108 23.33° C 95% 1018.4 hPa 0 mm - 15 W/m² -
1788377804 23.33° C 95% 1018.3 hPa 0 mm - 15 W/m² -
1788377505 23.33° C 95% 1018 hPa 0 mm - 16 W/m² -
1788377203 22.78° C 95% 1017.7 hPa 0 mm - 19 W/m² -
1788376902 22.78° C 95% 1017.7 hPa 0 mm - 19 W/m² -
1788376598 22.78° C 95% 1018.1 hPa 0 mm - 21 W/m² -
1788376297 22.78° C 94% 1018.3 hPa 0 mm - 22 W/m² -
1788375993 23.33° C 94% 1018.4 hPa 0 mm - 25 W/m² -
1788375688 23.33° C 94% 1018 hPa 0 mm - 29 W/m² -
1788375384 23.33° C 94% 1018 hPa 0 mm - 42 W/m² -
1788375080 23.33° C 94% 1018.1 hPa 0 mm - 42 W/m² -
1788374774 23.89° C 94% 1017.7 hPa 0 mm - 49 W/m² -
1788374469 23.89° C 94% 1018.3 hPa 0 mm - 71 W/m² -
1788374166 23.89° C 93% 1018.4 hPa 0 mm - 103 W/m² -
1788373862 23.33° C 92% 1018.8 hPa 3.05 mm - 169 W/m² -
1788373558 23.89° C 91% 1019.4 hPa 10.16 mm - 144 W/m² -
1788373254 25° C 87% 1019.3 hPa 7.11 mm - 153 W/m² -
1788372950 26.11° C 78% 1019.3 hPa 0 mm - 113 W/m² -
1788372644 27.22° C 70% 1019.4 hPa 0 mm - 74 W/m² -
1788372343 28.89° C 69% 1019.2 hPa 0 mm - 87 W/m² -
1788372040 31.67° C 64% 1018.9 hPa 0 mm - 54 W/m² -
1788371739 32.22° C 62% 1018.5 hPa 0 mm - 603 W/m² -

* Rain latest hour (hover to see other rain measurements)
** Current wind speed in m/s (hover to see current wind gust speed)